sensor_id;sensor_type;location;lat;lon;timestamp;P1;durP1;ratioP1;P2;durP2;ratioP2
1999;SDS011;1001;48.87406500;9.59633600;2023-03-01T00:01:24;20.40;;;12.52;;
1999;SDS011;1001;48.87406500;9.59633600;2023-03-01T00:03:52;18.35;;;13.23;;
1999;SDS011;1001;48.87406500;9.59633600;2023-03-01T00:06:21;23.63;;;14.50;;
1999;SDS011;1001;48.87406500;9.59633600;2023-03-01T00:08:49;20.05;;;13.68;;
1999;SDS011;1001;48.87406500;9.59633600;2023-03-01T00:11:17;23.30;;;13.10;;
1999;SDS011;1001;48.87406500;9.59633600;2023-03-01T00:13:46;22.65;;;14.40;;
1999;SDS011;1001;48.87406500;9.59633600;2023-03-01T00:16:14;28.15;;;15.10;;
1999;SDS011;1001;48.87406500;9.59633600;2023-03-01T00:18:42;19.80;;;13.15;;
1999;SDS011;1001;48.87406500;9.59633600;2023-03-01T00:21:09;21.30;;;14.23;;
1999;SDS011;1001;48.87406500;9.59633600;2023-03-01T00:23:37;22.95;;;14.32;;
1999;SDS011;1001;48.87406500;9.59633600;2023-03-01T00:26:05;27.65;;;16.70;;
1999;SDS011;1001;48.87406500;9.59633600;2023-03-01T00:28:33;22.48;;;13.88;;
1999;SDS011;1001;48.87406500;9.59633600;2023-03-01T00:31:02;18.33;;;13.45;;
1999;SDS011;1001;48.87406500;9.59633600;2023-03-01T00:33:29;24.98;;;16.17;;
1999;SDS011;1001;48.87406500;9.59633600;2023-03-01T00:35:57;25.40;;;15.32;;
1999;SDS011;1001;48.87406500;9.59633600;2023-03-01T00:38:24;25.80;;;14.15;;
1999;SDS011;1001;48.87406500;9.59633600;2023-03-01T00:40:52;24.50;;;15.57;;
1999;SDS011;1001;48.87406500;9.59633600;2023-03-01T00:43:18;22.38;;;14.48;;
1999;SDS011;1001;48.87406500;9.59633600;2023-03-01T00:45:45;22.25;;;15.10;;
1999;SDS011;1001;48.87406500;9.59633600;2023-03-01T00:48:12;26.52;;;17.15;;
1999;SDS011;1001;48.87406500;9.59633600;2023-03-01T00:50:39;22.92;;;15.57;;
1999;SDS011;1001;48.87406500;9.59633600;2023-03-01T00:53:05;24.25;;;15.07;;
1999;SDS011;1001;48.87406500;9.59633600;2023-03-01T00:55:32;27.70;;;16.60;;
1999;SDS011;1001;48.87406500;9.59633600;2023-03-01T00:58:00;32.25;;;17.65;;
1999;SDS011;1001;48.87406500;9.59633600;2023-03-01T01:00:26;26.60;;;14.40;;
1999;SDS011;1001;48.87406500;9.59633600;2023-03-01T01:02:53;26.58;;;16.60;;
1999;SDS011;1001;48.87406500;9.59633600;2023-03-01T01:05:20;21.00;;;15.00;;
1999;SDS011;1001;48.87406500;9.59633600;2023-03-01T01:07:47;25.60;;;15.30;;
1999;SDS011;1001;48.87406500;9.59633600;2023-03-01T01:10:14;27.35;;;16.20;;
1999;SDS011;1001;48.87406500;9.59633600;2023-03-01T01:12:45;29.55;;;16.25;;
1999;SDS011;1001;48.87406500;9.59633600;2023-03-01T01:15:13;22.48;;;14.27;;
1999;SDS011;1001;48.87406500;9.59633600;2023-03-01T01:17:41;25.48;;;15.23;;
1999;SDS011;1001;48.87406500;9.59633600;2023-03-01T01:20:08;24.80;;;16.90;;
1999;SDS011;1001;48.87406500;9.59633600;2023-03-01T01:22:36;19.67;;;14.85;;
1999;SDS011;1001;48.87406500;9.59633600;2023-03-01T01:25:02;25.80;;;16.38;;
1999;SDS011;1001;48.87406500;9.59633600;2023-03-01T01:27:29;20.65;;;15.50;;
1999;SDS011;1001;48.87406500;9.59633600;2023-03-01T01:29:56;25.15;;;16.08;;
1999;SDS011;1001;48.87406500;9.59633600;2023-03-01T01:32:24;21.35;;;14.52;;
1999;SDS011;1001;48.87406500;9.59633600;2023-03-01T01:34:51;24.30;;;16.80;;
1999;SDS011;1001;48.87406500;9.59633600;2023-03-01T01:37:17;22.80;;;15.48;;
1999;SDS011;1001;48.87406500;9.59633600;2023-03-01T01:39:44;21.80;;;16.02;;
1999;SDS011;1001;48.87406500;9.59633600;2023-03-01T01:42:11;22.55;;;14.65;;
1999;SDS011;1001;48.87406500;9.59633600;2023-03-01T01:44:42;23.52;;;14.43;;
1999;SDS011;1001;48.87406500;9.59633600;2023-03-01T01:47:12;27.08;;;15.60;;
1999;SDS011;1001;48.87406500;9.59633600;2023-03-01T01:49:44;23.77;;;16.38;;
1999;SDS011;1001;48.87406500;9.59633600;2023-03-01T01:52:14;23.95;;;14.40;;
1999;SDS011;1001;48.87406500;9.59633600;2023-03-01T01:54:44;20.80;;;14.93;;
1999;SDS011;1001;48.87406500;9.59633600;2023-03-01T01:57:16;24.50;;;15.20;;
1999;SDS011;1001;48.87406500;9.59633600;2023-03-01T01:59:47;21.65;;;15.32;;
1999;SDS011;1001;48.87406500;9.59633600;2023-03-01T02:02:16;21.40;;;12.48;;
1999;SDS011;1001;48.87406500;9.59633600;2023-03-01T02:04:46;27.70;;;17.95;;
1999;SDS011;1001;48.87406500;9.59633600;2023-03-01T02:07:15;22.60;;;16.10;;
1999;SDS011;1001;48.87406500;9.59633600;2023-03-01T02:09:43;28.48;;;14.95;;
1999;SDS011;1001;48.87406500;9.59633600;2023-03-01T02:12:13;25.40;;;15.30;;
1999;SDS011;1001;48.87406500;9.59633600;2023-03-01T02:14:40;28.92;;;17.33;;
1999;SDS011;1001;48.87406500;9.59633600;2023-03-01T02:17:07;24.63;;;16.08;;
1999;SDS011;1001;48.87406500;9.59633600;2023-03-01T02:19:38;26.60;;;16.88;;
1999;SDS011;1001;48.87406500;9.59633600;2023-03-01T02:22:15;27.92;;;17.00;;
1999;SDS011;1001;48.87406500;9.59633600;2023-03-01T02:24:49;24.75;;;15.27;;
1999;SDS011;1001;48.87406500;9.59633600;2023-03-01T02:27:26;23.85;;;14.45;;
1999;SDS011;1001;48.87406500;9.59633600;2023-03-01T02:30:01;23.48;;;14.75;;
1999;SDS011;1001;48.87406500;9.59633600;2023-03-01T02:32:27;26.95;;;17.58;;
1999;SDS011;1001;48.87406500;9.59633600;2023-03-01T02:34:54;24.75;;;14.90;;
1999;SDS011;1001;48.87406500;9.59633600;2023-03-01T02:37:22;26.85;;;18.52;;
1999;SDS011;1001;48.87406500;9.59633600;2023-03-01T02:39:53;26.73;;;17.30;;
1999;SDS011;1001;48.87406500;9.59633600;2023-03-01T02:42:26;25.70;;;14.43;;
1999;SDS011;1001;48.87406500;9.59633600;2023-03-01T02:44:56;29.65;;;16.52;;
1999;SDS011;1001;48.87406500;9.59633600;2023-03-01T02:47:24;30.00;;;18.60;;
1999;SDS011;1001;48.87406500;9.59633600;2023-03-01T02:49:51;25.05;;;16.30;;
1999;SDS011;1001;48.87406500;9.59633600;2023-03-01T02:52:28;25.25;;;17.38;;
1999;SDS011;1001;48.87406500;9.59633600;2023-03-01T02:55:04;26.85;;;17.48;;
1999;SDS011;1001;48.87406500;9.59633600;2023-03-01T02:57:34;25.98;;;15.38;;
1999;SDS011;1001;48.87406500;9.59633600;2023-03-01T03:00:05;24.85;;;15.65;;
1999;SDS011;1001;48.87406500;9.59633600;2023-03-01T03:02:35;26.48;;;17.08;;
1999;SDS011;1001;48.87406500;9.59633600;2023-03-01T03:05:03;25.67;;;17.75;;
1999;SDS011;1001;48.87406500;9.59633600;2023-03-01T03:07:33;22.40;;;15.57;;
1999;SDS011;1001;48.87406500;9.59633600;2023-03-01T03:10:02;23.08;;;16.17;;
1999;SDS011;1001;48.87406500;9.59633600;2023-03-01T03:12:30;26.17;;;16.70;;
1999;SDS011;1001;48.87406500;9.59633600;2023-03-01T03:14:57;21.63;;;15.15;;
1999;SDS011;1001;48.87406500;9.59633600;2023-03-01T03:17:23;29.83;;;19.45;;
1999;SDS011;1001;48.87406500;9.59633600;2023-03-01T03:19:51;30.08;;;18.67;;
1999;SDS011;1001;48.87406500;9.59633600;2023-03-01T03:22:18;22.70;;;17.02;;
1999;SDS011;1001;48.87406500;9.59633600;2023-03-01T03:24:44;26.15;;;17.45;;
1999;SDS011;1001;48.87406500;9.59633600;2023-03-01T03:27:11;32.25;;;18.75;;
1999;SDS011;1001;48.87406500;9.59633600;2023-03-01T03:29:38;23.02;;;14.70;;
1999;SDS011;1001;48.87406500;9.59633600;2023-03-01T03:32:04;26.20;;;17.77;;
1999;SDS011;1001;48.87406500;9.59633600;2023-03-01T03:34:31;25.27;;;17.48;;
1999;SDS011;1001;48.87406500;9.59633600;2023-03-01T03:36:59;28.13;;;17.20;;
1999;SDS011;1001;48.87406500;9.59633600;2023-03-01T03:39:25;31.23;;;17.50;;
1999;SDS011;1001;48.87406500;9.59633600;2023-03-01T03:41:52;25.23;;;16.92;;
1999;SDS011;1001;48.87406500;9.59633600;2023-03-01T03:44:19;27.63;;;16.85;;
1999;SDS011;1001;48.87406500;9.59633600;2023-03-01T03:46:46;31.48;;;17.33;;
1999;SDS011;1001;48.87406500;9.59633600;2023-03-01T03:49:13;29.45;;;18.02;;
1999;SDS011;1001;48.87406500;9.59633600;2023-03-01T03:51:39;22.38;;;15.63;;
1999;SDS011;1001;48.87406500;9.59633600;2023-03-01T03:54:07;25.52;;;16.48;;
1999;SDS011;1001;48.87406500;9.59633600;2023-03-01T03:56:34;28.02;;;15.45;;
1999;SDS011;1001;48.87406500;9.59633600;2023-03-01T03:59:00;23.83;;;17.15;;
1999;SDS011;1001;48.87406500;9.59633600;2023-03-01T04:01:27;26.83;;;17.15;;
1999;SDS011;1001;48.87406500;9.59633600;2023-03-01T04:03:54;26.75;;;17.00;;
1999;SDS011;1001;48.87406500;9.59633600;2023-03-01T04:06:20;24.98;;;16.42;;
1999;SDS011;1001;48.87406500;9.59633600;2023-03-01T04:08:47;24.92;;;16.20;;
1999;SDS011;1001;48.87406500;9.59633600;2023-03-01T04:11:17;25.17;;;16.48;;
1999;SDS011;1001;48.87406500;9.59633600;2023-03-01T04:13:55;27.58;;;19.48;;
1999;SDS011;1001;48.87406500;9.59633600;2023-03-01T04:16:23;23.45;;;16.52;;
1999;SDS011;1001;48.87406500;9.59633600;2023-03-01T04:18:50;30.08;;;16.77;;
1999;SDS011;1001;48.87406500;9.59633600;2023-03-01T04:21:18;21.05;;;15.63;;
1999;SDS011;1001;48.87406500;9.59633600;2023-03-01T04:23:45;25.92;;;15.10;;
1999;SDS011;1001;48.87406500;9.59633600;2023-03-01T04:26:12;23.70;;;16.23;;
1999;SDS011;1001;48.87406500;9.59633600;2023-03-01T04:28:40;29.42;;;17.88;;
1999;SDS011;1001;48.87406500;9.59633600;2023-03-01T04:31:10;27.00;;;16.30;;
1999;SDS011;1001;48.87406500;9.59633600;2023-03-01T04:33:39;26.10;;;18.10;;
1999;SDS011;1001;48.87406500;9.59633600;2023-03-01T04:36:07;25.60;;;16.17;;
1999;SDS011;1001;48.87406500;9.59633600;2023-03-01T04:38:34;30.98;;;18.45;;
1999;SDS011;1001;48.87406500;9.59633600;2023-03-01T04:41:02;27.27;;;16.00;;
1999;SDS011;1001;48.87406500;9.59633600;2023-03-01T04:43:29;31.30;;;19.45;;
1999;SDS011;1001;48.87406500;9.59633600;2023-03-01T04:46:00;24.35;;;17.13;;
1999;SDS011;1001;48.87406500;9.59633600;2023-03-01T04:48:29;26.48;;;18.00;;
1999;SDS011;1001;48.87406500;9.59633600;2023-03-01T04:50:56;26.88;;;18.67;;
1999;SDS011;1001;48.87406500;9.59633600;2023-03-01T04:53:24;23.70;;;16.45;;
1999;SDS011;1001;48.87406500;9.59633600;2023-03-01T04:55:50;27.40;;;16.92;;
1999;SDS011;1001;48.87406500;9.59633600;2023-03-01T04:58:17;25.17;;;16.90;;
1999;SDS011;1001;48.87406500;9.59633600;2023-03-01T05:00:44;30.67;;;17.40;;
1999;SDS011;1001;48.87406500;9.59633600;2023-03-01T05:03:12;30.55;;;17.58;;
1999;SDS011;1001;48.87406500;9.59633600;2023-03-01T05:05:43;22.23;;;16.05;;
1999;SDS011;1001;48.87406500;9.59633600;2023-03-01T05:08:12;25.25;;;17.40;;
1999;SDS011;1001;48.87406500;9.59633600;2023-03-01T05:10:43;26.15;;;16.90;;
1999;SDS011;1001;48.87406500;9.59633600;2023-03-01T05:13:11;24.27;;;16.38;;
1999;SDS011;1001;48.87406500;9.59633600;2023-03-01T05:15:40;26.73;;;18.25;;
1999;SDS011;1001;48.87406500;9.59633600;2023-03-01T05:18:06;28.58;;;17.80;;
1999;SDS011;1001;48.87406500;9.59633600;2023-03-01T05:20:37;29.40;;;17.88;;
1999;SDS011;1001;48.87406500;9.59633600;2023-03-01T05:23:04;23.80;;;16.90;;
1999;SDS011;1001;48.87406500;9.59633600;2023-03-01T05:25:31;28.15;;;17.65;;
1999;SDS011;1001;48.87406500;9.59633600;2023-03-01T05:27:58;24.85;;;17.10;;
1999;SDS011;1001;48.87406500;9.59633600;2023-03-01T05:30:29;29.13;;;18.63;;
1999;SDS011;1001;48.87406500;9.59633600;2023-03-01T05:32:56;34.40;;;18.30;;
1999;SDS011;1001;48.87406500;9.59633600;2023-03-01T05:35:23;26.90;;;17.20;;
1999;SDS011;1001;48.87406500;9.59633600;2023-03-01T05:37:51;28.75;;;18.50;;
1999;SDS011;1001;48.87406500;9.59633600;2023-03-01T05:40:18;27.92;;;18.83;;
1999;SDS011;1001;48.87406500;9.59633600;2023-03-01T05:42:47;23.15;;;15.52;;
1999;SDS011;1001;48.87406500;9.59633600;2023-03-01T05:45:15;28.40;;;16.65;;
1999;SDS011;1001;48.87406500;9.59633600;2023-03-01T05:47:43;25.48;;;17.45;;
1999;SDS011;1001;48.87406500;9.59633600;2023-03-01T05:50:12;27.20;;;17.02;;
1999;SDS011;1001;48.87406500;9.59633600;2023-03-01T05:52:43;28.38;;;17.45;;
1999;SDS011;1001;48.87406500;9.59633600;2023-03-01T05:55:12;27.23;;;19.90;;
1999;SDS011;1001;48.87406500;9.59633600;2023-03-01T05:57:39;24.77;;;17.17;;
1999;SDS011;1001;48.87406500;9.59633600;2023-03-01T06:00:06;25.42;;;16.65;;
1999;SDS011;1001;48.87406500;9.59633600;2023-03-01T06:02:34;31.48;;;20.48;;
1999;SDS011;1001;48.87406500;9.59633600;2023-03-01T06:05:01;26.15;;;16.23;;
1999;SDS011;1001;48.87406500;9.59633600;2023-03-01T06:07:27;28.15;;;17.10;;
1999;SDS011;1001;48.87406500;9.59633600;2023-03-01T06:09:54;33.13;;;20.88;;
1999;SDS011;1001;48.87406500;9.59633600;2023-03-01T06:12:22;27.95;;;20.42;;
1999;SDS011;1001;48.87406500;9.59633600;2023-03-01T06:14:48;28.10;;;19.80;;
1999;SDS011;1001;48.87406500;9.59633600;2023-03-01T06:17:15;30.52;;;19.35;;
1999;SDS011;1001;48.87406500;9.59633600;2023-03-01T06:19:42;26.95;;;18.30;;
1999;SDS011;1001;48.87406500;9.59633600;2023-03-01T06:22:08;34.05;;;20.55;;
1999;SDS011;1001;48.87406500;9.59633600;2023-03-01T06:24:35;28.80;;;19.00;;
1999;SDS011;1001;48.87406500;9.59633600;2023-03-01T06:27:01;31.42;;;18.92;;
1999;SDS011;1001;48.87406500;9.59633600;2023-03-01T06:29:29;32.83;;;19.90;;
1999;SDS011;1001;48.87406500;9.59633600;2023-03-01T06:31:56;29.60;;;22.20;;
1999;SDS011;1001;48.87406500;9.59633600;2023-03-01T06:34:23;32.97;;;20.67;;
1999;SDS011;1001;48.87406500;9.59633600;2023-03-01T06:36:49;34.28;;;21.17;;
1999;SDS011;1001;48.87406500;9.59633600;2023-03-01T06:39:16;36.35;;;22.92;;
1999;SDS011;1001;48.87406500;9.59633600;2023-03-01T06:41:42;32.42;;;20.52;;
1999;SDS011;1001;48.87406500;9.59633600;2023-03-01T06:44:09;31.50;;;20.02;;
1999;SDS011;1001;48.87406500;9.59633600;2023-03-01T06:46:37;25.75;;;14.35;;
1999;SDS011;1001;48.87406500;9.59633600;2023-03-01T06:49:04;29.73;;;18.77;;
1999;SDS011;1001;48.87406500;9.59633600;2023-03-01T06:51:34;30.65;;;18.67;;
1999;SDS011;1001;48.87406500;9.59633600;2023-03-01T06:54:01;36.10;;;21.33;;
1999;SDS011;1001;48.87406500;9.59633600;2023-03-01T06:56:27;32.45;;;22.17;;
1999;SDS011;1001;48.87406500;9.59633600;2023-03-01T06:58:54;33.30;;;21.63;;
1999;SDS011;1001;48.87406500;9.59633600;2023-03-01T07:01:21;33.63;;;20.88;;
1999;SDS011;1001;48.87406500;9.59633600;2023-03-01T07:03:49;37.15;;;21.95;;
1999;SDS011;1001;48.87406500;9.59633600;2023-03-01T07:06:15;31.42;;;21.25;;
1999;SDS011;1001;48.87406500;9.59633600;2023-03-01T07:08:42;33.45;;;18.67;;
1999;SDS011;1001;48.87406500;9.59633600;2023-03-01T07:11:09;30.55;;;19.45;;
1999;SDS011;1001;48.87406500;9.59633600;2023-03-01T07:13:36;39.15;;;20.60;;
1999;SDS011;1001;48.87406500;9.59633600;2023-03-01T07:16:02;35.17;;;19.38;;
1999;SDS011;1001;48.87406500;9.59633600;2023-03-01T07:18:29;41.22;;;21.50;;
1999;SDS011;1001;48.87406500;9.59633600;2023-03-01T07:20:57;34.63;;;18.33;;
1999;SDS011;1001;48.87406500;9.59633600;2023-03-01T07:23:24;30.13;;;18.55;;
1999;SDS011;1001;48.87406500;9.59633600;2023-03-01T07:25:51;30.45;;;16.15;;
1999;SDS011;1001;48.87406500;9.59633600;2023-03-01T07:28:19;28.70;;;18.63;;
1999;SDS011;1001;48.87406500;9.59633600;2023-03-01T07:30:45;33.13;;;20.65;;
1999;SDS011;1001;48.87406500;9.59633600;2023-03-01T07:33:12;34.05;;;20.88;;
1999;SDS011;1001;48.87406500;9.59633600;2023-03-01T07:35:39;29.50;;;19.52;;
1999;SDS011;1001;48.87406500;9.59633600;2023-03-01T07:38:07;30.55;;;17.80;;
1999;SDS011;1001;48.87406500;9.59633600;2023-03-01T07:40:33;30.20;;;17.90;;
1999;SDS011;1001;48.87406500;9.59633600;2023-03-01T07:43:00;28.17;;;18.88;;
1999;SDS011;1001;48.87406500;9.59633600;2023-03-01T07:45:27;30.95;;;17.73;;
1999;SDS011;1001;48.87406500;9.59633600;2023-03-01T07:47:54;28.98;;;17.40;;
1999;SDS011;1001;48.87406500;9.59633600;2023-03-01T07:50:22;33.28;;;18.40;;
1999;SDS011;1001;48.87406500;9.59633600;2023-03-01T07:52:49;30.35;;;18.23;;
1999;SDS011;1001;48.87406500;9.59633600;2023-03-01T07:55:17;26.25;;;17.63;;
1999;SDS011;1001;48.87406500;9.59633600;2023-03-01T07:57:44;27.25;;;19.88;;
1999;SDS011;1001;48.87406500;9.59633600;2023-03-01T08:00:11;27.08;;;18.17;;
1999;SDS011;1001;48.87406500;9.59633600;2023-03-01T08:02:38;25.42;;;15.75;;
1999;SDS011;1001;48.87406500;9.59633600;2023-03-01T08:05:07;27.23;;;16.60;;
1999;SDS011;1001;48.87406500;9.59633600;2023-03-01T08:07:34;24.15;;;16.50;;
1999;SDS011;1001;48.87406500;9.59633600;2023-03-01T08:10:01;24.85;;;17.15;;
1999;SDS011;1001;48.87406500;9.59633600;2023-03-01T08:12:29;25.20;;;17.05;;
1999;SDS011;1001;48.87406500;9.59633600;2023-03-01T08:14:56;27.10;;;18.00;;
1999;SDS011;1001;48.87406500;9.59633600;2023-03-01T08:17:22;29.88;;;18.45;;
1999;SDS011;1001;48.87406500;9.59633600;2023-03-01T08:19:49;28.15;;;16.08;;
1999;SDS011;1001;48.87406500;9.59633600;2023-03-01T08:22:16;29.50;;;17.42;;
1999;SDS011;1001;48.87406500;9.59633600;2023-03-01T08:24:42;27.20;;;18.95;;
1999;SDS011;1001;48.87406500;9.59633600;2023-03-01T08:27:09;26.20;;;17.35;;
1999;SDS011;1001;48.87406500;9.59633600;2023-03-01T08:29:38;27.02;;;18.48;;
1999;SDS011;1001;48.87406500;9.59633600;2023-03-01T08:32:05;27.15;;;17.92;;
1999;SDS011;1001;48.87406500;9.59633600;2023-03-01T08:34:31;28.17;;;17.05;;
1999;SDS011;1001;48.87406500;9.59633600;2023-03-01T08:37:00;23.20;;;17.45;;
1999;SDS011;1001;48.87406500;9.59633600;2023-03-01T08:39:27;31.95;;;16.95;;
1999;SDS011;1001;48.87406500;9.59633600;2023-03-01T08:41:54;28.13;;;17.33;;
1999;SDS011;1001;48.87406500;9.59633600;2023-03-01T08:44:20;22.52;;;16.70;;
1999;SDS011;1001;48.87406500;9.59633600;2023-03-01T08:46:50;26.42;;;18.20;;
1999;SDS011;1001;48.87406500;9.59633600;2023-03-01T08:49:18;23.52;;;15.15;;
1999;SDS011;1001;48.87406500;9.59633600;2023-03-01T08:51:46;25.60;;;17.75;;
1999;SDS011;1001;48.87406500;9.59633600;2023-03-01T08:54:14;22.08;;;14.45;;
1999;SDS011;1001;48.87406500;9.59633600;2023-03-01T08:56:43;27.95;;;17.95;;
1999;SDS011;1001;48.87406500;9.59633600;2023-03-01T08:59:10;23.65;;;16.50;;
1999;SDS011;1001;48.87406500;9.59633600;2023-03-01T09:01:37;23.60;;;16.38;;
1999;SDS011;1001;48.87406500;9.59633600;2023-03-01T09:04:06;23.95;;;18.27;;
1999;SDS011;1001;48.87406500;9.59633600;2023-03-01T09:06:33;23.23;;;15.85;;
1999;SDS011;1001;48.87406500;9.59633600;2023-03-01T09:09:01;23.83;;;16.90;;
1999;SDS011;1001;48.87406500;9.59633600;2023-03-01T09:11:29;22.48;;;14.63;;
1999;SDS011;1001;48.87406500;9.59633600;2023-03-01T09:13:55;29.95;;;15.07;;
1999;SDS011;1001;48.87406500;9.59633600;2023-03-01T09:16:22;23.92;;;16.05;;
1999;SDS011;1001;48.87406500;9.59633600;2023-03-01T09:18:50;24.45;;;14.18;;
1999;SDS011;1001;48.87406500;9.59633600;2023-03-01T09:21:19;23.20;;;16.23;;
1999;SDS011;1001;48.87406500;9.59633600;2023-03-01T09:23:48;21.20;;;15.27;;
1999;SDS011;1001;48.87406500;9.59633600;2023-03-01T09:26:16;25.48;;;17.65;;
1999;SDS011;1001;48.87406500;9.59633600;2023-03-01T09:28:44;24.10;;;17.33;;
1999;SDS011;1001;48.87406500;9.59633600;2023-03-01T09:31:11;27.92;;;17.08;;
1999;SDS011;1001;48.87406500;9.59633600;2023-03-01T09:33:39;21.17;;;15.60;;
1999;SDS011;1001;48.87406500;9.59633600;2023-03-01T09:36:07;25.00;;;15.77;;
1999;SDS011;1001;48.87406500;9.59633600;2023-03-01T09:38:38;22.23;;;15.73;;
1999;SDS011;1001;48.87406500;9.59633600;2023-03-01T09:41:09;27.00;;;18.57;;
1999;SDS011;1001;48.87406500;9.59633600;2023-03-01T09:43:38;21.80;;;17.10;;
1999;SDS011;1001;48.87406500;9.59633600;2023-03-01T09:46:10;22.43;;;14.63;;
1999;SDS011;1001;48.87406500;9.59633600;2023-03-01T09:48:43;25.47;;;17.80;;
1999;SDS011;1001;48.87406500;9.59633600;2023-03-01T09:51:16;17.73;;;13.40;;
1999;SDS011;1001;48.87406500;9.59633600;2023-03-01T09:53:47;20.23;;;15.00;;
1999;SDS011;1001;48.87406500;9.59633600;2023-03-01T09:56:16;22.07;;;14.67;;
1999;SDS011;1001;48.87406500;9.59633600;2023-03-01T09:58:47;19.60;;;14.63;;
1999;SDS011;1001;48.87406500;9.59633600;2023-03-01T10:01:25;25.23;;;15.87;;
1999;SDS011;1001;48.87406500;9.59633600;2023-03-01T10:04:04;24.17;;;16.43;;
1999;SDS011;1001;48.87406500;9.59633600;2023-03-01T10:06:39;24.90;;;16.47;;
1999;SDS011;1001;48.87406500;9.59633600;2023-03-01T10:09:15;23.53;;;16.50;;
1999;SDS011;1001;48.87406500;9.59633600;2023-03-01T10:11:45;20.30;;;16.10;;
1999;SDS011;1001;48.87406500;9.59633600;2023-03-01T10:14:15;22.97;;;14.80;;
1999;SDS011;1001;48.87406500;9.59633600;2023-03-01T10:16:54;26.00;;;15.57;;
1999;SDS011;1001;48.87406500;9.59633600;2023-03-01T10:19:29;25.93;;;14.67;;
1999;SDS011;1001;48.87406500;9.59633600;2023-03-01T10:22:00;26.60;;;14.87;;
1999;SDS011;1001;48.87406500;9.59633600;2023-03-01T10:24:34;20.33;;;14.10;;
1999;SDS011;1001;48.87406500;9.59633600;2023-03-01T10:27:04;22.57;;;18.40;;
1999;SDS011;1001;48.87406500;9.59633600;2023-03-01T10:29:34;21.87;;;16.67;;
1999;SDS011;1001;48.87406500;9.59633600;2023-03-01T10:32:05;20.40;;;14.30;;
1999;SDS011;1001;48.87406500;9.59633600;2023-03-01T10:34:33;24.30;;;15.50;;
1999;SDS011;1001;48.87406500;9.59633600;2023-03-01T10:37:04;18.93;;;14.53;;
1999;SDS011;1001;48.87406500;9.59633600;2023-03-01T10:39:37;20.43;;;14.17;;
1999;SDS011;1001;48.87406500;9.59633600;2023-03-01T10:42:22;21.53;;;15.53;;
1999;SDS011;1001;48.87406500;9.59633600;2023-03-01T10:44:53;20.70;;;13.43;;
1999;SDS011;1001;48.87406500;9.59633600;2023-03-01T10:47:20;20.33;;;15.53;;
1999;SDS011;1001;48.87406500;9.59633600;2023-03-01T10:49:53;25.30;;;16.00;;
1999;SDS011;1001;48.87406500;9.59633600;2023-03-01T10:52:25;19.80;;;15.30;;
1999;SDS011;1001;48.87406500;9.59633600;2023-03-01T10:54:59;22.93;;;13.53;;
1999;SDS011;1001;48.87406500;9.59633600;2023-03-01T10:57:36;23.53;;;13.30;;
1999;SDS011;1001;48.87406500;9.59633600;2023-03-01T11:00:14;23.80;;;15.17;;
1999;SDS011;1001;48.87406500;9.59633600;2023-03-01T11:02:46;21.20;;;15.77;;
1999;SDS011;1001;48.87406500;9.59633600;2023-03-01T11:05:19;22.80;;;13.93;;
1999;SDS011;1001;48.87406500;9.59633600;2023-03-01T11:07:50;23.50;;;16.70;;
1999;SDS011;1001;48.87406500;9.59633600;2023-03-01T11:10:20;22.70;;;17.70;;
1999;SDS011;1001;48.87406500;9.59633600;2023-03-01T11:12:48;23.33;;;15.10;;
1999;SDS011;1001;48.87406500;9.59633600;2023-03-01T11:15:24;16.40;;;12.97;;
1999;SDS011;1001;48.87406500;9.59633600;2023-03-01T11:17:52;18.83;;;14.70;;
1999;SDS011;1001;48.87406500;9.59633600;2023-03-01T11:20:24;19.70;;;14.03;;
1999;SDS011;1001;48.87406500;9.59633600;2023-03-01T11:22:53;20.83;;;14.97;;
1999;SDS011;1001;48.87406500;9.59633600;2023-03-01T11:25:25;23.87;;;13.87;;
1999;SDS011;1001;48.87406500;9.59633600;2023-03-01T11:27:53;20.53;;;16.87;;
1999;SDS011;1001;48.87406500;9.59633600;2023-03-01T11:30:23;20.27;;;13.20;;
1999;SDS011;1001;48.87406500;9.59633600;2023-03-01T11:32:57;21.53;;;14.83;;
1999;SDS011;1001;48.87406500;9.59633600;2023-03-01T11:35:32;20.20;;;14.37;;
1999;SDS011;1001;48.87406500;9.59633600;2023-03-01T11:38:09;18.87;;;13.23;;
1999;SDS011;1001;48.87406500;9.59633600;2023-03-01T11:40:46;20.80;;;15.53;;
1999;SDS011;1001;48.87406500;9.59633600;2023-03-01T11:43:19;20.03;;;15.17;;
1999;SDS011;1001;48.87406500;9.59633600;2023-03-01T11:45:56;21.10;;;15.20;;
1999;SDS011;1001;48.87406500;9.59633600;2023-03-01T11:48:48;21.00;;;13.97;;
1999;SDS011;1001;48.87406500;9.59633600;2023-03-01T11:51:24;16.07;;;12.87;;
1999;SDS011;1001;48.87406500;9.59633600;2023-03-01T11:54:06;16.83;;;13.37;;
1999;SDS011;1001;48.87406500;9.59633600;2023-03-01T11:56:45;17.80;;;14.30;;
1999;SDS011;1001;48.87406500;9.59633600;2023-03-01T12:02:15;18.33;;;14.20;;
1999;SDS011;1001;48.87406500;9.59633600;2023-03-01T12:08:05;20.37;;;13.93;;
1999;SDS011;1001;48.87406500;9.59633600;2023-03-01T12:10:42;17.63;;;13.30;;
1999;SDS011;1001;48.87406500;9.59633600;2023-03-01T12:13:24;20.83;;;13.23;;
1999;SDS011;1001;48.87406500;9.59633600;2023-03-01T12:16:08;16.43;;;11.87;;
1999;SDS011;1001;48.87406500;9.59633600;2023-03-01T12:18:50;15.90;;;13.67;;
1999;SDS011;1001;48.87406500;9.59633600;2023-03-01T12:21:29;18.17;;;13.10;;
1999;SDS011;1001;48.87406500;9.59633600;2023-03-01T12:27:10;20.67;;;15.10;;
1999;SDS011;1001;48.87406500;9.59633600;2023-03-01T12:29:50;20.03;;;14.03;;
1999;SDS011;1001;48.87406500;9.59633600;2023-03-01T12:32:29;16.13;;;13.87;;
1999;SDS011;1001;48.87406500;9.59633600;2023-03-01T12:35:16;17.30;;;14.00;;
1999;SDS011;1001;48.87406500;9.59633600;2023-03-01T12:37:55;21.93;;;13.13;;
1999;SDS011;1001;48.87406500;9.59633600;2023-03-01T12:40:32;18.23;;;13.00;;
1999;SDS011;1001;48.87406500;9.59633600;2023-03-01T12:43:08;22.40;;;13.03;;
1999;SDS011;1001;48.87406500;9.59633600;2023-03-01T12:48:39;19.53;;;13.90;;
1999;SDS011;1001;48.87406500;9.59633600;2023-03-01T12:51:14;23.27;;;13.40;;
1999;SDS011;1001;48.87406500;9.59633600;2023-03-01T12:53:44;17.63;;;12.40;;
1999;SDS011;1001;48.87406500;9.59633600;2023-03-01T12:56:13;20.43;;;15.03;;
1999;SDS011;1001;48.87406500;9.59633600;2023-03-01T12:58:46;17.63;;;12.03;;
1999;SDS011;1001;48.87406500;9.59633600;2023-03-01T13:01:26;17.47;;;13.80;;
1999;SDS011;1001;48.87406500;9.59633600;2023-03-01T13:04:05;17.13;;;11.63;;
1999;SDS011;1001;48.87406500;9.59633600;2023-03-01T13:06:41;20.03;;;13.40;;
1999;SDS011;1001;48.87406500;9.59633600;2023-03-01T13:09:19;22.53;;;15.40;;
1999;SDS011;1001;48.87406500;9.59633600;2023-03-01T13:11:51;20.47;;;13.33;;
1999;SDS011;1001;48.87406500;9.59633600;2023-03-01T13:14:36;18.67;;;14.07;;